PWSweather.com
Personal Weather Stations
Station Observations
LW1DRJ
MorenoAR 17441

MorenoAR 17441

Lat: -34.6340099, Lon: -58.791382

Elevation: 19

Station Type: Fine Offset

http://www.lw1drj.com.ar/clima

Latest ConditionsUpdated 5:40:00 PM GMT-03:57 Monday, Sep 23, 2019
Currently Today's Max Today's Min Today's Average
Temperature 71.4°F21.9°C 71.4°F21.9°C 48.0°F8.9°C 55.8°F13.2°C
Dew Point 31.7°F-0.2°C 39.1°F3.9°C 26.6°F-3.0°C 35.1°F1.7°C
Winds 4.5 mph NE7.2 kmh NE 10.7 mph -17.2 kmh - - 4.5 mph 7.2 kmh
Wind Gusts 6.0 mph9.7 kmh 22.1 mph35.6 kmh - -
Humidity 23% 64% 23% 48%
Pressure 29.98 in1015.2 mb 30.21 in1023.0 mb 29.98 in1015.2 mb -
Hour Temp Dew Point Humidity Winds Wind Gusts Pressure Precip Precip Rate Daily Precip Total
05:40 PM 71.4°F21.9°C 31.7°F-0.2°C 23% 4.5 mph NE7.2 kmh NE 6.0 mph9.7 kmh 29.98 in1015.2 mb 0.00 in0.0 mm 0.00 in0.0 mm 0.00 in0.0 mm
05:20 PM 70.9°F21.6°C 34.3°F1.3°C 26% 0.7 mph N1.1 kmh N 9.2 mph14.8 kmh 29.98 in1015.2 mb 0.00 in0.0 mm 0.00 in0.0 mm 0.00 in0.0 mm
05:00 PM 70.7°F21.5°C 33.1°F0.6°C 25% 2.2 mph N3.5 kmh N 8.3 mph13.4 kmh 29.99 in1015.6 mb 0.00 in0.0 mm 0.00 in0.0 mm 0.00 in0.0 mm
04:40 PM 67.6°F19.8°C 35.9°F2.2°C 31% 3.1 mph ENE5.0 kmh ENE 19.0 mph30.6 kmh 29.98 in1015.2 mb 0.00 in0.0 mm 0.00 in0.0 mm 0.00 in0.0 mm
04:20 PM 69.6°F20.9°C 35.0°F1.7°C 28% 7.6 mph NE12.2 kmh NE 15.9 mph25.6 kmh 29.98 in1015.2 mb 0.00 in0.0 mm 0.00 in0.0 mm 0.00 in0.0 mm
04:00 PM 68.2°F20.1°C 35.5°F1.9°C 30% 8.3 mph ENE13.4 kmh ENE 15.2 mph24.5 kmh 29.99 in1015.6 mb 0.00 in0.0 mm 0.00 in0.0 mm 0.00 in0.0 mm
03:40 PM 69.1°F20.6°C 35.5°F1.9°C 29% 5.4 mph NNE8.7 kmh NNE 11.4 mph18.3 kmh 29.99 in1015.6 mb 0.00 in0.0 mm 0.00 in0.0 mm 0.00 in0.0 mm
03:20 PM 68.4°F20.2°C 34.8°F1.6°C 29% 2.2 mph N3.5 kmh N 12.1 mph19.5 kmh 30.01 in1016.3 mb 0.00 in0.0 mm 0.00 in0.0 mm 0.00 in0.0 mm
03:00 PM 69.8°F21.0°C 36.1°F2.3°C 29% 3.1 mph NE5.0 kmh NE 13.0 mph20.9 kmh 30.02 in1016.6 mb 0.00 in0.0 mm 0.00 in0.0 mm 0.00 in0.0 mm
02:40 PM 67.8°F19.9°C 36.1°F2.3°C 31% 7.6 mph NE12.2 kmh NE 13.0 mph20.9 kmh 30.03 in1016.9 mb 0.00 in0.0 mm 0.00 in0.0 mm 0.00 in0.0 mm
02:20 PM 68.0°F20.0°C 34.5°F1.4°C 29% 3.8 mph NNW6.1 kmh NNW 11.4 mph18.3 kmh 30.05 in1017.6 mb 0.00 in0.0 mm 0.00 in0.0 mm 0.00 in0.0 mm
02:00 PM 67.1°F19.5°C 34.6°F1.4°C 30% 5.4 mph N8.7 kmh N 11.4 mph18.3 kmh 30.05 in1017.6 mb 0.00 in0.0 mm 0.00 in0.0 mm 0.00 in0.0 mm
01:40 PM 65.8°F18.8°C 33.5°F0.8°C 30% 3.1 mph N5.0 kmh N 14.5 mph23.3 kmh 30.07 in1018.3 mb 0.00 in0.0 mm 0.00 in0.0 mm 0.00 in0.0 mm
01:20 PM 65.8°F18.8°C 34.3°F1.3°C 31% 3.1 mph NNE5.0 kmh NNE 11.4 mph18.3 kmh 30.08 in1018.6 mb 0.00 in0.0 mm 0.00 in0.0 mm 0.00 in0.0 mm
01:00 PM 66.4°F19.1°C 33.1°F0.6°C 29% 2.2 mph NE3.5 kmh NE 12.1 mph19.5 kmh 30.10 in1019.3 mb 0.00 in0.0 mm 0.00 in0.0 mm 0.00 in0.0 mm
12:40 PM 65.3°F18.5°C 33.0°F0.6°C 30% 1.6 mph NE2.6 kmh NE 11.4 mph18.3 kmh 30.11 in1019.6 mb 0.00 in0.0 mm 0.00 in0.0 mm 0.00 in0.0 mm
12:20 PM 65.1°F18.4°C 31.2°F-0.4°C 28% 6.9 mph N11.1 kmh N 10.7 mph17.2 kmh 30.13 in1020.3 mb 0.00 in0.0 mm 0.00 in0.0 mm 0.00 in0.0 mm
12:00 PM 64.8°F18.2°C 30.9°F-0.6°C 28% 5.4 mph NNE8.7 kmh NNE 12.1 mph19.5 kmh 30.13 in1020.3 mb 0.00 in0.0 mm 0.00 in0.0 mm 0.00 in0.0 mm
11:40 AM 61.7°F16.5°C 29.9°F-1.2°C 30% 2.2 mph NE3.5 kmh NE 16.8 mph27.0 kmh 30.13 in1020.3 mb 0.00 in0.0 mm 0.00 in0.0 mm 0.00 in0.0 mm
11:20 AM 61.9°F16.6°C 29.2°F-1.6°C 29% 3.1 mph NE5.0 kmh NE 13.6 mph21.9 kmh 30.14 in1020.7 mb 0.00 in0.0 mm 0.00 in0.0 mm 0.00 in0.0 mm
11:00 AM 59.5°F15.3°C 27.2°F-2.7°C 29% 8.3 mph NE13.4 kmh NE 21.3 mph34.3 kmh 30.14 in1020.7 mb 0.00 in0.0 mm 0.00 in0.0 mm 0.00 in0.0 mm
10:40 AM 60.8°F16.0°C 26.6°F-3.0°C 27% 9.2 mph N14.8 kmh N 19.0 mph30.6 kmh 30.16 in1021.3 mb 0.00 in0.0 mm 0.00 in0.0 mm 0.00 in0.0 mm
10:20 AM 58.8°F14.9°C 26.6°F-3.0°C 29% 9.2 mph NE14.8 kmh NE 19.7 mph31.7 kmh 30.16 in1021.3 mb 0.00 in0.0 mm 0.00 in0.0 mm 0.00 in0.0 mm
10:00 AM 57.6°F14.2°C 27.1°F-2.7°C 31% 3.1 mph ENE5.0 kmh ENE 20.6 mph33.2 kmh 30.16 in1021.3 mb 0.00 in0.0 mm 0.00 in0.0 mm 0.00 in0.0 mm
09:40 AM 55.9°F13.3°C 27.2°F-2.7°C 33% 9.8 mph NE15.8 kmh NE 18.3 mph29.5 kmh 30.18 in1022.0 mb 0.00 in0.0 mm 0.00 in0.0 mm 0.00 in0.0 mm
09:20 AM 56.1°F13.4°C 28.8°F-1.8°C 35% 6.9 mph ENE11.1 kmh ENE 17.4 mph28.0 kmh 30.19 in1022.4 mb 0.00 in0.0 mm 0.00 in0.0 mm 0.00 in0.0 mm
09:00 AM 54.9°F12.7°C 29.1°F-1.6°C 37% 9.8 mph NNE15.8 kmh NNE 16.8 mph27.0 kmh 30.18 in1022.0 mb 0.00 in0.0 mm 0.00 in0.0 mm 0.00 in0.0 mm
08:40 AM 53.1°F11.7°C 30.6°F-0.8°C 42% 10.7 mph NE17.2 kmh NE 22.1 mph35.6 kmh 30.19 in1022.4 mb 0.00 in0.0 mm 0.00 in0.0 mm 0.00 in0.0 mm
08:20 AM 52.0°F11.1°C 32.4°F0.2°C 47% 8.3 mph E13.4 kmh E 20.6 mph33.2 kmh 30.19 in1022.4 mb 0.00 in0.0 mm 0.00 in0.0 mm 0.00 in0.0 mm
08:00 AM 51.3°F10.7°C 34.2°F1.2°C 52% 5.4 mph NE8.7 kmh NE 20.6 mph33.2 kmh 30.20 in1022.7 mb 0.00 in0.0 mm 0.00 in0.0 mm 0.00 in0.0 mm
07:40 AM 51.3°F10.7°C 34.7°F1.5°C 53% 7.6 mph E12.2 kmh E 17.4 mph28.0 kmh 30.20 in1022.7 mb 0.00 in0.0 mm 0.00 in0.0 mm 0.00 in0.0 mm
07:20 AM 50.2°F10.1°C 36.0°F2.2°C 58% 6.0 mph N9.7 kmh N 15.2 mph24.5 kmh 30.20 in1022.7 mb 0.00 in0.0 mm 0.00 in0.0 mm 0.00 in0.0 mm
07:02 AM 48.2°F9.0°C 35.8°F2.1°C 62% 3.8 mph E6.1 kmh E 10.7 mph17.2 kmh 30.19 in1022.4 mb 0.00 in0.0 mm 0.00 in0.0 mm 0.00 in0.0 mm
06:52 AM 48.6°F9.2°C 36.5°F2.5°C 63% 5.4 mph E8.7 kmh E 10.7 mph17.2 kmh 30.19 in1022.4 mb 0.00 in0.0 mm 0.00 in0.0 mm 0.00 in0.0 mm
06:42 AM 48.2°F9.0°C 36.2°F2.3°C 63% 3.1 mph E5.0 kmh E 6.9 mph11.1 kmh 30.19 in1022.4 mb 0.00 in0.0 mm 0.00 in0.0 mm 0.00 in0.0 mm
06:32 AM 48.2°F9.0°C 36.2°F2.3°C 63% 2.2 mph NE3.5 kmh NE 6.0 mph9.7 kmh 30.18 in1022.0 mb 0.00 in0.0 mm 0.00 in0.0 mm 0.00 in0.0 mm
06:22 AM 48.6°F9.2°C 36.5°F2.5°C 63% 3.8 mph SE6.1 kmh SE 6.0 mph9.7 kmh 30.18 in1022.0 mb 0.00 in0.0 mm 0.00 in0.0 mm 0.00 in0.0 mm
06:12 AM 48.2°F9.0°C 36.2°F2.3°C 63% 1.6 mph NE2.6 kmh NE 9.2 mph14.8 kmh 30.18 in1022.0 mb 0.00 in0.0 mm 0.00 in0.0 mm 0.00 in0.0 mm
06:02 AM 48.0°F8.9°C 36.0°F2.2°C 63% 4.5 mph NE7.2 kmh NE 9.2 mph14.8 kmh 30.19 in1022.4 mb 0.00 in0.0 mm 0.00 in0.0 mm 0.00 in0.0 mm
05:52 AM 49.3°F9.6°C 37.2°F2.9°C 63% 4.5 mph SE7.2 kmh SE 8.3 mph13.4 kmh 30.18 in1022.0 mb 0.00 in0.0 mm 0.00 in0.0 mm 0.00 in0.0 mm
05:42 AM 49.3°F9.6°C 37.2°F2.9°C 63% 4.5 mph NE7.2 kmh NE 8.3 mph13.4 kmh 30.18 in1022.0 mb 0.00 in0.0 mm 0.00 in0.0 mm 0.00 in0.0 mm
05:32 AM 48.9°F9.4°C 36.9°F2.7°C 63% 5.4 mph N8.7 kmh N 11.4 mph18.3 kmh 30.18 in1022.0 mb 0.00 in0.0 mm 0.00 in0.0 mm 0.00 in0.0 mm
05:22 AM 49.1°F9.5°C 37.0°F2.8°C 63% 6.0 mph NE9.7 kmh NE 11.4 mph18.3 kmh 30.18 in1022.0 mb 0.00 in0.0 mm 0.00 in0.0 mm 0.00 in0.0 mm
05:12 AM 49.8°F9.9°C 37.7°F3.2°C 63% 6.0 mph E9.7 kmh E 10.7 mph17.2 kmh 30.18 in1022.0 mb 0.00 in0.0 mm 0.00 in0.0 mm 0.00 in0.0 mm
05:02 AM 50.2°F10.1°C 37.7°F3.2°C 62% 5.4 mph NE8.7 kmh NE 9.8 mph15.8 kmh 30.18 in1022.0 mb 0.00 in0.0 mm 0.00 in0.0 mm 0.00 in0.0 mm
04:52 AM 50.0°F10.0°C 37.9°F3.3°C 63% 5.4 mph NE8.7 kmh NE 6.9 mph11.1 kmh 30.18 in1022.0 mb 0.00 in0.0 mm 0.00 in0.0 mm 0.00 in0.0 mm
04:42 AM 50.5°F10.3°C 38.4°F3.6°C 63% 4.5 mph W7.2 kmh W 6.9 mph11.1 kmh 30.18 in1022.0 mb 0.00 in0.0 mm 0.00 in0.0 mm 0.00 in0.0 mm
04:32 AM 50.2°F10.1°C 38.1°F3.4°C 63% 4.5 mph E7.2 kmh E 6.9 mph11.1 kmh 30.18 in1022.0 mb 0.00 in0.0 mm 0.00 in0.0 mm 0.00 in0.0 mm
04:22 AM 50.4°F10.2°C 37.8°F3.2°C 62% 2.2 mph NE3.5 kmh NE 6.0 mph9.7 kmh 30.18 in1022.0 mb 0.00 in0.0 mm 0.00 in0.0 mm 0.00 in0.0 mm
04:12 AM 49.6°F9.8°C 37.1°F2.8°C 62% 3.1 mph E5.0 kmh E 9.2 mph14.8 kmh 30.17 in1021.7 mb 0.00 in0.0 mm 0.00 in0.0 mm 0.00 in0.0 mm
04:02 AM 50.7°F10.4°C 38.2°F3.4°C 62% 4.5 mph NE7.2 kmh NE 9.8 mph15.8 kmh 30.18 in1022.0 mb 0.00 in0.0 mm 0.00 in0.0 mm 0.00 in0.0 mm
03:52 AM 50.5°F10.3°C 38.4°F3.6°C 63% 4.5 mph E7.2 kmh E 9.8 mph15.8 kmh 30.18 in1022.0 mb 0.00 in0.0 mm 0.00 in0.0 mm 0.00 in0.0 mm
03:42 AM 50.4°F10.2°C 38.2°F3.4°C 63% 4.5 mph NE7.2 kmh NE 8.3 mph13.4 kmh 30.18 in1022.0 mb 0.00 in0.0 mm 0.00 in0.0 mm 0.00 in0.0 mm
03:32 AM 50.9°F10.5°C 39.1°F3.9°C 64% 3.8 mph NE6.1 kmh NE 6.9 mph11.1 kmh 30.18 in1022.0 mb 0.00 in0.0 mm 0.00 in0.0 mm 0.00 in0.0 mm
03:22 AM 50.2°F10.1°C 38.5°F3.6°C 64% 4.5 mph E7.2 kmh E 6.9 mph11.1 kmh 30.18 in1022.0 mb 0.00 in0.0 mm 0.00 in0.0 mm 0.00 in0.0 mm
03:12 AM 50.7°F10.4°C 38.6°F3.7°C 63% 2.2 mph E3.5 kmh E 4.5 mph7.2 kmh 30.18 in1022.0 mb 0.00 in0.0 mm 0.00 in0.0 mm 0.00 in0.0 mm
03:02 AM 50.9°F10.5°C 38.3°F3.5°C 62% 2.2 mph E3.5 kmh E 4.5 mph7.2 kmh 30.18 in1022.0 mb 0.00 in0.0 mm 0.00 in0.0 mm 0.00 in0.0 mm
02:52 AM 51.3°F10.7°C 38.3°F3.5°C 61% 3.1 mph NE5.0 kmh NE 6.0 mph9.7 kmh 30.18 in1022.0 mb 0.00 in0.0 mm 0.00 in0.0 mm 0.00 in0.0 mm
02:42 AM 50.9°F10.5°C 37.5°F3.1°C 60% 4.5 mph E7.2 kmh E 6.0 mph9.7 kmh 30.18 in1022.0 mb 0.00 in0.0 mm 0.00 in0.0 mm 0.00 in0.0 mm
02:32 AM 50.9°F10.5°C 36.6°F2.6°C 58% 2.2 mph E3.5 kmh E 5.4 mph8.7 kmh 30.18 in1022.0 mb 0.00 in0.0 mm 0.00 in0.0 mm 0.00 in0.0 mm
02:22 AM 50.9°F10.5°C 36.2°F2.3°C 57% 3.1 mph E5.0 kmh E 5.4 mph8.7 kmh 30.18 in1022.0 mb 0.00 in0.0 mm 0.00 in0.0 mm 0.00 in0.0 mm
02:12 AM 52.2°F11.2°C 36.9°F2.7°C 56% 0.7 mph E1.1 kmh E 3.8 mph6.1 kmh 30.18 in1022.0 mb 0.00 in0.0 mm 0.00 in0.0 mm 0.00 in0.0 mm
02:02 AM 51.8°F11.0°C 36.1°F2.3°C 55% 2.2 mph E3.5 kmh E 6.0 mph9.7 kmh 30.18 in1022.0 mb 0.00 in0.0 mm 0.00 in0.0 mm 0.00 in0.0 mm
01:52 AM 51.8°F11.0°C 36.1°F2.3°C 55% 4.5 mph SE7.2 kmh SE 6.0 mph9.7 kmh 30.18 in1022.0 mb 0.00 in0.0 mm 0.00 in0.0 mm 0.00 in0.0 mm
01:42 AM 52.0°F11.1°C 36.3°F2.4°C 55% 3.1 mph SE5.0 kmh SE 6.9 mph11.1 kmh 30.18 in1022.0 mb 0.00 in0.0 mm 0.00 in0.0 mm 0.00 in0.0 mm
01:32 AM 52.3°F11.3°C 36.2°F2.3°C 54% 3.8 mph E6.1 kmh E 6.9 mph11.1 kmh 30.19 in1022.4 mb 0.00 in0.0 mm 0.00 in0.0 mm 0.00 in0.0 mm
01:22 AM 53.1°F11.7°C 36.4°F2.4°C 53% 3.8 mph E6.1 kmh E 8.3 mph13.4 kmh 30.19 in1022.4 mb 0.00 in0.0 mm 0.00 in0.0 mm 0.00 in0.0 mm
01:12 AM 52.7°F11.5°C 36.5°F2.5°C 54% 4.5 mph SE7.2 kmh SE 8.3 mph13.4 kmh 30.19 in1022.4 mb 0.00 in0.0 mm 0.00 in0.0 mm 0.00 in0.0 mm
01:02 AM 52.7°F11.5°C 36.5°F2.5°C 54% 3.1 mph SE5.0 kmh SE 6.0 mph9.7 kmh 30.19 in1022.4 mb 0.00 in0.0 mm 0.00 in0.0 mm 0.00 in0.0 mm
12:52 AM 53.1°F11.7°C 36.8°F2.7°C 54% 3.8 mph SE6.1 kmh SE 10.7 mph17.2 kmh 30.19 in1022.4 mb 0.00 in0.0 mm 0.00 in0.0 mm 0.00 in0.0 mm
12:42 AM 53.2°F11.8°C 37.5°F3.1°C 55% 4.5 mph SE7.2 kmh SE 10.7 mph17.2 kmh 30.20 in1022.7 mb 0.00 in0.0 mm 0.00 in0.0 mm 0.00 in0.0 mm
12:32 AM 52.9°F11.6°C 37.1°F2.8°C 55% 2.2 mph E3.5 kmh E 8.3 mph13.4 kmh 30.20 in1022.7 mb 0.00 in0.0 mm 0.00 in0.0 mm 0.00 in0.0 mm
12:22 AM 53.6°F12.0°C 37.8°F3.2°C 55% 3.8 mph SE6.1 kmh SE 8.3 mph13.4 kmh 30.21 in1023.0 mb 0.00 in0.0 mm 0.00 in0.0 mm 0.00 in0.0 mm
12:12 AM 53.1°F11.7°C 38.2°F3.4°C 57% 1.6 mph SE2.6 kmh SE 6.0 mph9.7 kmh 30.20 in1022.7 mb 0.00 in0.0 mm 0.00 in0.0 mm 0.00 in0.0 mm
12:02 AM 52.7°F11.5°C 38.3°F3.5°C 58% 3.8 mph E6.1 kmh E 6.9 mph11.1 kmh 30.20 in1022.7 mb 0.00 in0.0 mm 0.00 in0.0 mm 0.00 in0.0 mm